Flight Track Log - Related Links

Times and Time Zones

All times are in EDT time to prevent confusion due to time zone crossing. See the CTL311 flight status page for this flight to view local times or setup timezone preferences in your user account.

Time Position Orientation Groundspeed Altitude Reporting Facility
EDT Latitude Longitude Course Direction KTS MPH feet Rate Location/Type
Mon 09:33:11 PM 41.7667 -87.7167 192° South 123 142 2,000  Level Chicago TRACON
Mon 09:34:05 PM 41.7500 -87.6833 124° Southeast 133 153 2,900 900 Climbing Chicago TRACON
Mon 09:35:11 PM 41.7000 -87.7000 194° South 169 194 3,800 725 Climbing Chicago TRACON
Mon 09:36:34 PM 41.6519 -87.7492 217° Southwest 172 198 4,700 621 Climbing Chicago Center
Mon 09:37:36 PM 41.6158 -87.7889 219° Southwest 171 197 5,300 581 Climbing Chicago Center
Mon 09:38:00 PM 41.5424 -87.8260 192° South  Level FlightAware
Mon 09:38:38 PM 41.5778 -87.8328 221° Southwest 175 201 5,900  Level Chicago Center
Mon 09:39:39 PM 41.5258 -87.8847 217° Southwest 189 217 6,000 49 Climbing Chicago Center
Mon 09:40:41 PM 41.4800 -87.9311 217° Southwest 200 230 6,000  Level Chicago Center
Mon 09:41:43 PM 41.4350 -87.9739 215° Southwest 200 230 6,000 49 Level Chicago Center
Mon 09:42:44 PM 41.3894 -88.0200 217° Southwest 199 229 6,100  Climbing Chicago Center
Mon 09:43:46 PM 41.3436 -88.0642 216° Southwest 199 229 6,000  Descending Chicago Center
Mon 09:44:48 PM 41.2994 -88.1100 218° Southwest 201 231 6,100  Climbing Chicago Center
Mon 09:45:49 PM 41.2556 -88.1553 218° Southwest 200 230 6,000 -49 Descending Chicago Center
Mon 09:46:51 PM 41.2114 -88.2008 218° Southwest 201 231 6,000  Level Chicago Center
Mon 09:47:52 PM 41.1675 -88.2447 217° Southwest 200 230 6,000  Level Chicago Center
Mon 09:48:54 PM 41.1147 -88.2967 217° Southwest 199 229 6,000 49 Level Chicago Center
Mon 09:49:55 PM 41.0700 -88.3403 216° Southwest 199 229 6,100 49 Climbing Chicago Center
Mon 09:50:57 PM 41.0250 -88.3831 216° Southwest 200 230 6,100 -98 Level Chicago Center
Mon 09:51:58 PM 40.9789 -88.4225 213° Southwest 199 229 5,900 -98 Descending Chicago Center
Mon 09:53:00 PM 40.9350 -88.4672 218° Southwest 200 230 5,900 49 Level Chicago Center
Mon 09:54:01 PM 40.8897 -88.5111 216° Southwest 202 232 6,000 49 Climbing Chicago Center
Mon 09:55:03 PM 40.8458 -88.5556 217° Southwest 201 231 6,000 -244 Level Chicago Center
Mon 09:56:04 PM 40.7917 -88.6086 217° Southwest 201 231 5,500 -732 Descending Chicago Center
Mon 09:57:06 PM 40.7400 -88.6558 215° Southwest 219 252 4,500 -683 Descending Chicago Center
Mon 09:58:07 PM 40.6900 -88.6989 213° Southwest 219 252 4,100 -390 Descending Chicago Center
Mon 09:59:09 PM 40.6447 -88.7428 216° Southwest 208 239 3,700 -537 Descending Chicago Center
Mon 10:00:10 PM 40.5978 -88.7867 215° Southwest 207 238 3,000 -683 Descending Chicago Center
Mon 10:01:12 PM 40.5489 -88.8275 212° Southwest 208 239 2,300 -537 Descending Chicago Center
Mon 10:02:13 PM 40.5008 -88.8669 212° Southwest 199 229 1,900 -443 Descending Chicago Center
Mon 10:03:14 PM 40.4733 -88.8983 221° Southwest 182 209 1,400 -492 Descending Chicago Center
Mon 10:05:00 PM 40.4667 -88.9000 201° Southwest  Level FlightAware
Mon 10:12:00 PM 40.4771 -88.9159 201° Southwest  Level Estimated
Mon 10:13:00 PM 40.4771 -88.9159 201° Southwest  Level Estimated

Login

Don't have an account? Register now (free) for customized features, flight alerts, and more!